Terminal Aerodrome Forecast
Issued by NWS Sioux Falls, SD

Home | Current Version | Previous Version | Graphics & Text | Print | Product List | Glossary On
Versions: 1 2 3 4 5 6 7 8 9 10 11 12 13 14 15 16 17 18
000
FTUS43 KFSD 282330
TAFFSD
TAF
KFSD 282330Z 2900/2924 09005KT P6SM SCT030 BKN200
      TEMPO 2900/2901 BKN030
     FM290900 VRB02KT 4SM BR SKC
      TEMPO 2910/2914 1SM BR BKN005
     FM291600 17006KT P6SM SCT025=

USA.gov is the U.S. government's official web portal to all federal, state and local government web resources and services.